Waccabuc, New York
Current Conditions -  °F | °C
As of 11:53 PM on Tuesday 25 Nov 2014 (Local Time) from KDXR Reporting Station
Clear Clear  
Wind Chill: 38°   Ceiling: Unl
Heat Index: 41°   Visibility: 10mi
Dew Point: 31°   Wind: 5mph
Humidity: 67%   Direction: 260°W
Pressure: 30.15"   Gusts: NA
Location:  41.29°N, 73.59°W
Report Text: KDXR 260453Z AUTO 26004KT 10SM CLR 05/M01 A3015 RMK AO2 SLP210 T00501006 401780017
Loading
Personal Weather Stations






























Interactive Weather Map New forecast layout! Learn more

10-Day Weather Forecast

Advertisements
Track Severe Weather on mobile